createdAt,value
2019-06-01T00:01:44.656Z,15.60
2019-06-01T00:04:21.028Z,15.60
2019-06-01T00:06:58.645Z,15.50
2019-06-01T00:09:36.185Z,15.50
2019-06-01T00:12:13.838Z,15.50
2019-06-01T00:14:51.457Z,15.40
2019-06-01T00:17:29.063Z,15.40
2019-06-01T00:20:06.684Z,15.40
2019-06-01T00:22:45.371Z,15.40
2019-06-01T00:25:21.771Z,15.40
2019-06-01T00:27:59.469Z,15.30
2019-06-01T00:30:36.983Z,15.30
2019-06-01T00:33:14.559Z,15.30
2019-06-01T00:35:52.133Z,15.20
2019-06-01T00:38:29.725Z,15.20
2019-06-01T00:41:07.346Z,15.10
2019-06-01T00:43:46.084Z,15.10
2019-06-01T00:46:22.508Z,15.10
2019-06-01T00:49:00.267Z,15.10
2019-06-01T00:51:37.867Z,15.00
2019-06-01T00:54:15.581Z,15.00
2019-06-01T00:56:53.871Z,15.00
2019-06-01T00:59:30.824Z,15.00
2019-06-01T01:02:08.385Z,14.90
2019-06-01T01:04:46.461Z,14.90
2019-06-01T01:07:23.618Z,14.90
2019-06-01T01:10:01.221Z,14.90
2019-06-01T01:12:57.395Z,14.90
2019-06-01T01:15:34.972Z,14.80
2019-06-01T01:18:12.592Z,14.70
2019-06-01T01:20:50.191Z,14.70
2019-06-01T01:23:27.689Z,14.60
2019-06-01T01:26:05.674Z,14.60
2019-06-01T01:28:43.304Z,14.50
2019-06-01T01:31:20.926Z,14.50
2019-06-01T01:33:58.487Z,14.50
2019-06-01T01:36:36.097Z,14.50
2019-06-01T01:39:13.667Z,14.40
2019-06-01T01:41:52.160Z,14.40
2019-06-01T01:44:28.775Z,14.40
2019-06-01T01:47:06.315Z,14.40
2019-06-01T01:49:43.902Z,14.40
2019-06-01T01:52:21.421Z,14.40
2019-06-01T01:54:59.010Z,14.30
2019-06-01T01:57:36.873Z,14.30
2019-06-01T02:00:14.414Z,14.30
2019-06-01T02:02:52.063Z,14.30
2019-06-01T02:05:29.728Z,14.20
2019-06-01T02:08:07.550Z,14.20
2019-06-01T02:10:45.111Z,14.10
2019-06-01T02:13:22.655Z,14.10
2019-06-01T02:16:00.631Z,14.10
2019-06-01T02:18:37.783Z,14.00
2019-06-01T02:21:15.434Z,14.00
2019-06-01T02:23:53.013Z,14.00
2019-06-01T02:26:30.757Z,14.00
2019-06-01T02:29:08.282Z,13.90
2019-06-01T02:31:45.842Z,13.90
2019-06-01T02:34:23.388Z,13.90
2019-06-01T02:37:02.393Z,13.90
2019-06-01T02:39:38.880Z,13.90
2019-06-01T02:42:16.454Z,13.80
2019-06-01T02:44:55.103Z,13.80
2019-06-01T02:47:31.576Z,13.80
2019-06-01T02:50:09.413Z,13.80
2019-06-01T02:52:47.111Z,13.70
2019-06-01T02:55:24.712Z,13.70
2019-06-01T02:58:02.463Z,13.70
2019-06-01T03:01:55.953Z,13.70
2019-06-01T03:04:17.989Z,13.70
2019-06-01T03:06:55.646Z,13.70
2019-06-01T03:09:33.194Z,13.70
2019-06-01T03:12:11.281Z,13.70
2019-06-01T03:14:48.925Z,13.70
2019-06-01T03:17:28.093Z,13.70
2019-06-01T03:20:06.406Z,13.70
2019-06-01T03:22:44.308Z,13.70
2019-06-01T03:25:21.813Z,13.70
2019-06-01T03:28:00.016Z,13.70
2019-06-01T03:30:45.841Z,13.60
2019-06-01T03:33:22.161Z,13.60
2019-06-01T03:36:00.721Z,13.60
2019-06-01T03:38:37.281Z,13.50
2019-06-01T03:41:14.842Z,13.60
2019-06-01T03:43:52.372Z,13.60
2019-06-01T03:46:29.997Z,13.60
2019-06-01T03:49:07.740Z,13.60
2019-06-01T03:51:45.132Z,13.60
2019-06-01T03:54:22.768Z,13.60
2019-06-01T03:57:00.912Z,13.60
2019-06-01T03:59:38.022Z,13.70
2019-06-01T04:02:15.614Z,13.80
2019-06-01T04:04:53.282Z,13.80
2019-06-01T04:07:30.916Z,13.90
2019-06-01T04:10:10.030Z,14.00
2019-06-01T04:12:46.240Z,14.10
2019-06-01T04:15:23.924Z,14.10
2019-06-01T04:18:01.963Z,14.20
2019-06-01T04:20:39.224Z,14.30
2019-06-01T04:23:16.855Z,14.30
2019-06-01T04:25:54.451Z,14.40
2019-06-01T04:28:32.174Z,14.40
2019-06-01T04:31:10.850Z,14.50
2019-06-01T04:33:47.335Z,14.50
2019-06-01T04:36:24.997Z,14.70
2019-06-01T04:39:03.361Z,14.70
2019-06-01T04:41:40.180Z,14.90
2019-06-01T04:44:18.399Z,15.00
2019-06-01T04:46:55.297Z,15.10
2019-06-01T04:49:32.860Z,15.20
2019-06-01T04:52:11.911Z,15.30
2019-06-01T04:54:48.073Z,15.40
2019-06-01T04:57:25.683Z,15.50
2019-06-01T05:00:07.916Z,15.60
2019-06-01T05:02:41.066Z,15.70
2019-06-01T05:05:18.659Z,15.80
2019-06-01T05:07:56.178Z,15.90
2019-06-01T05:10:33.759Z,16.10
2019-06-01T05:13:11.510Z,16.20
2019-06-01T05:15:48.795Z,16.30
2019-06-01T05:18:26.370Z,16.50
2019-06-01T05:21:04.142Z,16.60
2019-06-01T05:23:41.780Z,16.70
2019-06-01T05:26:19.327Z,16.80
2019-06-01T05:28:57.115Z,16.90
2019-06-01T05:31:34.635Z,17.10
2019-06-01T05:34:12.179Z,17.20
2019-06-01T05:36:49.683Z,17.40
2019-06-01T05:39:27.242Z,17.50
2019-06-01T05:42:04.797Z,17.60
2019-06-01T05:44:42.334Z,17.70
2019-06-01T05:47:19.901Z,17.80
2019-06-01T05:49:57.479Z,18.00
2019-06-01T05:52:35.001Z,18.10
2019-06-01T05:55:12.919Z,18.20
2019-06-01T05:57:50.188Z,18.30
2019-06-01T06:00:50.986Z,18.40
2019-06-01T06:03:39.881Z,18.50
2019-06-01T06:06:06.091Z,18.80
2019-06-01T06:08:43.677Z,19.00
2019-06-01T06:11:21.258Z,19.20
2019-06-01T06:13:58.917Z,19.40
2019-06-01T06:16:36.480Z,19.70
2019-06-01T06:19:17.445Z,20.00
2019-06-01T06:21:51.608Z,20.30
2019-06-01T06:24:29.227Z,20.60
2019-06-01T06:27:06.886Z,20.90
2019-06-01T06:29:44.440Z,21.30
2019-06-01T06:32:23.329Z,21.60
2019-06-01T06:34:59.781Z,21.90
2019-06-01T06:37:37.350Z,22.00
2019-06-01T06:40:15.924Z,22.20
2019-06-01T06:42:52.447Z,22.40
2019-06-01T06:45:30.054Z,22.60
2019-06-01T06:48:07.602Z,22.70
2019-06-01T06:50:45.364Z,22.90
2019-06-01T06:53:32.773Z,23.00
2019-06-01T06:56:00.473Z,23.20
2019-06-01T06:58:37.998Z,23.20
2019-06-01T07:01:16.746Z,23.20
2019-06-01T07:03:53.308Z,23.30
2019-06-01T07:06:30.896Z,23.40
2019-06-01T07:09:09.158Z,23.50
2019-06-01T07:11:46.761Z,23.60
2019-06-01T07:14:25.473Z,23.80
2019-06-01T07:17:02.083Z,23.90
2019-06-01T07:19:39.602Z,24.10
2019-06-01T07:22:17.428Z,24.40
2019-06-01T07:24:55.001Z,24.50
2019-06-01T07:27:32.697Z,24.70
2019-06-01T07:30:10.473Z,24.70
2019-06-01T07:32:48.122Z,24.80
2019-06-01T07:35:26.379Z,24.80
2019-06-01T07:38:06.377Z,24.80
2019-06-01T07:40:43.917Z,24.70
2019-06-01T07:43:22.596Z,24.70
2019-06-01T07:45:59.249Z,24.80
2019-06-01T07:48:36.596Z,24.80
2019-06-01T07:51:14.154Z,24.60
2019-06-01T07:53:52.093Z,24.30
2019-06-01T07:56:29.825Z,24.00
2019-06-01T07:59:07.343Z,23.80
2019-06-01T08:01:45.044Z,23.50
2019-06-01T08:04:23.952Z,23.40
2019-06-01T08:07:00.149Z,23.20
2019-06-01T08:09:37.744Z,23.10
2019-06-01T08:12:15.317Z,23.20
2019-06-01T08:14:53.015Z,23.20
2019-06-01T08:17:32.163Z,23.40
2019-06-01T08:20:08.616Z,23.50
2019-06-01T08:22:46.129Z,23.60
2019-06-01T08:25:24.544Z,23.70
2019-06-01T08:28:01.625Z,23.80
2019-06-01T08:30:39.471Z,23.80
2019-06-01T08:33:17.071Z,24.00
2019-06-01T08:35:54.637Z,24.10
2019-06-01T08:38:33.669Z,24.20
2019-06-01T08:41:09.929Z,24.30
2019-06-01T08:43:47.631Z,24.50
2019-06-01T08:46:25.576Z,24.80
2019-06-01T08:49:02.893Z,24.90
2019-06-01T08:51:40.685Z,25.10
2019-06-01T08:54:18.215Z,25.30
2019-06-01T08:56:55.885Z,25.30
2019-06-01T08:59:34.579Z,25.40
2019-06-01T09:02:11.320Z,25.60
2019-06-01T09:04:49.134Z,25.70
2019-06-01T09:07:26.922Z,25.90
2019-06-01T09:10:04.328Z,25.90
2019-06-01T09:12:41.902Z,26.10
2019-06-01T09:15:19.418Z,26.30
2019-06-01T09:17:57.064Z,26.40
2019-06-01T09:20:37.486Z,26.60
2019-06-01T09:23:12.208Z,26.50
2019-06-01T09:25:49.714Z,26.40
2019-06-01T09:28:27.835Z,26.50
2019-06-01T09:31:04.773Z,26.50
2019-06-01T09:33:42.447Z,26.50
2019-06-01T09:36:20.014Z,26.40
2019-06-01T09:38:57.648Z,26.60
2019-06-01T09:41:36.623Z,26.80
2019-06-01T09:44:13.503Z,26.90
2019-06-01T09:46:51.102Z,27.10
2019-06-01T09:49:29.186Z,27.20
2019-06-01T09:52:06.473Z,27.30
2019-06-01T09:54:44.026Z,27.30
2019-06-01T09:57:21.561Z,27.50
2019-06-01T09:59:59.110Z,27.70
2019-06-01T10:02:36.817Z,27.80
2019-06-01T10:05:14.432Z,27.90
2019-06-01T10:07:51.960Z,27.90
2019-06-01T10:10:29.892Z,27.70
2019-06-01T10:13:08.023Z,27.70
2019-06-01T10:15:44.624Z,27.70
2019-06-01T10:18:22.238Z,27.60
2019-06-01T10:20:59.796Z,27.30
2019-06-01T10:23:38.472Z,27.20
2019-06-01T10:26:14.890Z,27.20
2019-06-01T10:28:52.421Z,27.20
2019-06-01T10:31:30.504Z,27.40
2019-06-01T10:34:07.577Z,27.50
2019-06-01T10:36:45.125Z,27.50
2019-06-01T10:39:22.818Z,27.30
2019-06-01T10:42:00.351Z,27.20
2019-06-01T10:44:43.401Z,27.10
2019-06-01T10:47:15.473Z,27.20
2019-06-01T10:49:53.092Z,27.50
2019-06-01T10:52:31.894Z,27.80
2019-06-01T10:55:08.359Z,28.10
2019-06-01T10:57:45.975Z,28.50
2019-06-01T11:00:37.521Z,28.50
2019-06-01T11:03:01.093Z,28.50
2019-06-01T11:05:38.843Z,28.50
2019-06-01T11:08:16.162Z,28.50
2019-06-01T11:10:53.782Z,28.50
2019-06-01T11:13:32.960Z,28.50
2019-06-01T11:16:09.219Z,28.50
2019-06-01T11:18:47.053Z,28.40
2019-06-01T11:21:25.341Z,28.40
2019-06-01T11:24:02.899Z,28.30
2019-06-01T11:26:41.721Z,28.10
2019-06-01T11:29:18.085Z,28.00
2019-06-01T11:31:55.631Z,27.80
2019-06-01T11:34:33.927Z,27.70
2019-06-01T11:37:15.194Z,27.70
2019-06-01T11:39:48.859Z,27.80
2019-06-01T11:42:26.853Z,27.90
2019-06-01T11:45:04.406Z,28.00
2019-06-01T11:47:42.946Z,28.00
2019-06-01T11:50:19.489Z,28.20
2019-06-01T11:52:57.226Z,28.40
2019-06-01T11:55:35.131Z,30.00
2019-06-01T11:58:12.586Z,33.30
2019-06-01T12:00:50.204Z,35.50
2019-06-01T12:03:27.775Z,37.20
2019-06-01T12:06:05.408Z,38.10
2019-06-01T12:08:44.073Z,38.80
2019-06-01T12:11:20.897Z,39.20
2019-06-01T12:13:58.568Z,39.00
2019-06-01T12:16:36.404Z,38.40
2019-06-01T12:19:13.823Z,37.80
2019-06-01T12:21:51.604Z,37.30
2019-06-01T12:24:29.154Z,37.00
2019-06-01T12:27:07.297Z,37.10
2019-06-01T12:29:45.838Z,37.70
2019-06-01T12:32:22.778Z,38.00
2019-06-01T12:35:03.045Z,38.60
2019-06-01T12:37:57.268Z,39.30
2019-06-01T12:40:15.704Z,40.00
2019-06-01T12:42:53.210Z,40.60
2019-06-01T12:45:30.744Z,41.40
2019-06-01T12:48:08.539Z,42.30
2019-06-01T12:50:49.059Z,43.10
2019-06-01T12:53:23.732Z,43.60
2019-06-01T12:56:01.599Z,43.60
2019-06-01T12:58:39.869Z,43.70
2019-06-01T13:01:16.903Z,43.00
2019-06-01T13:03:54.720Z,41.60
2019-06-01T13:06:32.287Z,41.10
2019-06-01T13:09:11.489Z,41.00
2019-06-01T13:11:49.483Z,40.80
2019-06-01T13:14:26.670Z,40.90
2019-06-01T13:17:07.626Z,41.70
2019-06-01T13:19:43.201Z,43.20
2019-06-01T13:22:19.569Z,44.30
2019-06-01T13:24:57.275Z,44.80
2019-06-01T13:27:34.919Z,45.00
2019-06-01T13:30:12.476Z,45.30
2019-06-01T13:32:50.762Z,45.50
2019-06-01T13:35:27.622Z,45.70
2019-06-01T13:38:12.230Z,45.90
2019-06-01T13:40:42.942Z,46.20
2019-06-01T13:43:20.653Z,46.20
2019-06-01T13:45:58.333Z,46.50
2019-06-01T13:48:35.858Z,46.60
2019-06-01T13:51:13.475Z,47.10
2019-06-01T13:53:52.770Z,47.40
2019-06-01T13:56:28.707Z,47.00
2019-06-01T13:59:06.237Z,46.80
2019-06-01T14:01:45.037Z,46.40
2019-06-01T14:04:21.539Z,46.60
2019-06-01T14:06:59.169Z,47.00
2019-06-01T14:09:36.769Z,46.90
2019-06-01T14:12:14.285Z,46.80
2019-06-01T14:14:51.887Z,46.30
2019-06-01T14:17:29.448Z,46.80
2019-06-01T14:20:07.329Z,47.50
2019-06-01T14:22:45.765Z,47.40
2019-06-01T14:25:22.640Z,46.90
2019-06-01T14:28:00.225Z,46.70
2019-06-01T14:30:37.845Z,46.00
2019-06-01T14:33:15.438Z,45.30
2019-06-01T14:35:53.073Z,44.60
2019-06-01T14:38:45.928Z,44.40
2019-06-01T14:41:08.211Z,44.00
2019-06-01T14:43:46.868Z,43.60
2019-06-01T14:46:23.430Z,43.20
2019-06-01T14:49:01.258Z,43.20
2019-06-01T14:51:38.968Z,43.60
2019-06-01T14:54:16.555Z,44.10
2019-06-01T14:56:54.071Z,44.10
2019-06-01T14:59:31.639Z,43.70
2019-06-01T15:02:09.572Z,43.30
2019-06-01T15:04:48.204Z,43.10
2019-06-01T15:07:24.704Z,43.10
2019-06-01T15:10:02.288Z,43.20
2019-06-01T15:12:39.897Z,43.30
2019-06-01T15:15:17.458Z,43.40
2019-06-01T15:17:55.533Z,43.70
2019-06-01T15:20:32.651Z,43.90
2019-06-01T15:23:10.282Z,43.70
2019-06-01T15:25:47.825Z,43.90
2019-06-01T15:28:25.532Z,44.30
2019-06-01T15:31:03.378Z,45.10
2019-06-01T15:33:40.696Z,45.60
2019-06-01T15:36:18.383Z,45.50
2019-06-01T15:38:56.118Z,44.70
2019-06-01T15:41:33.783Z,44.20
2019-06-01T15:44:11.586Z,43.80
2019-06-01T15:46:49.204Z,43.70
2019-06-01T15:49:26.780Z,43.60
2019-06-01T15:52:04.438Z,43.50
2019-06-01T15:54:42.051Z,43.90
2019-06-01T15:57:19.741Z,44.40
2019-06-01T15:59:58.539Z,44.80
2019-06-01T16:02:35.180Z,44.60
2019-06-01T16:05:12.709Z,43.70
2019-06-01T16:07:50.488Z,43.70
2019-06-01T16:10:28.035Z,43.80
2019-06-01T16:13:05.688Z,43.90
2019-06-01T16:15:43.245Z,44.10
2019-06-01T16:18:20.845Z,44.50
2019-06-01T16:20:58.395Z,44.50
2019-06-01T16:23:49.514Z,44.50
2019-06-01T16:26:16.383Z,44.30
2019-06-01T16:28:51.143Z,44.00
2019-06-01T16:31:28.902Z,44.10
2019-06-01T16:34:06.470Z,44.20
2019-06-01T16:36:44.070Z,44.30
2019-06-01T16:39:21.703Z,44.70
2019-06-01T16:41:59.796Z,45.30
2019-06-01T16:44:36.905Z,45.70
2019-06-01T16:47:14.646Z,45.50
2019-06-01T16:49:52.336Z,45.10
2019-06-01T16:52:29.906Z,44.90
2019-06-01T16:55:07.734Z,44.50
2019-06-01T16:57:45.289Z,44.20
2019-06-01T17:00:22.853Z,44.10
2019-06-01T17:03:00.673Z,44.00
2019-06-01T17:05:38.247Z,43.80
2019-06-01T17:08:15.822Z,43.50
2019-06-01T17:10:53.410Z,43.10
2019-06-01T17:13:30.941Z,43.00
2019-06-01T17:16:08.616Z,43.00
2019-06-01T17:18:46.238Z,43.00
2019-06-01T17:21:23.823Z,42.70
2019-06-01T17:24:01.644Z,42.80
2019-06-01T17:26:39.261Z,42.60
2019-06-01T17:29:16.897Z,42.80
2019-06-01T17:32:04.165Z,43.00
2019-06-01T17:34:32.357Z,42.80
2019-06-01T17:37:10.029Z,42.60
2019-06-01T17:39:47.660Z,42.40
2019-06-01T17:42:25.373Z,42.30
2019-06-01T17:45:04.313Z,41.80
2019-06-01T17:47:41.017Z,41.40
2019-06-01T17:50:18.368Z,41.00
2019-06-01T17:52:55.943Z,40.80
2019-06-01T17:55:35.330Z,40.70
2019-06-01T17:58:13.164Z,40.40
2019-06-01T18:00:50.634Z,39.70
2019-06-01T18:03:28.312Z,38.90
2019-06-01T18:06:06.087Z,38.30
2019-06-01T18:08:43.669Z,38.00
2019-06-01T18:11:21.560Z,37.60
2019-06-01T18:13:59.151Z,37.00
2019-06-01T18:16:36.918Z,36.60
2019-06-01T18:19:14.521Z,36.20
2019-06-01T18:21:52.244Z,35.90
2019-06-01T18:24:29.762Z,35.50
2019-06-01T18:27:08.503Z,35.10
2019-06-01T18:29:48.669Z,34.50
2019-06-01T18:32:22.882Z,34.00
2019-06-01T18:35:00.412Z,33.50
2019-06-01T18:37:38.147Z,33.20
2019-06-01T18:40:16.183Z,32.90
2019-06-01T18:42:54.250Z,32.70
2019-06-01T18:45:31.784Z,32.80
2019-06-01T18:48:10.237Z,32.90
2019-06-01T18:50:47.646Z,33.00
2019-06-01T18:53:25.408Z,33.00
2019-06-01T18:56:04.140Z,32.60
2019-06-01T18:58:40.690Z,32.20
2019-06-01T19:01:21.034Z,31.80
2019-06-01T19:03:55.989Z,31.40
2019-06-01T19:06:33.603Z,30.90
2019-06-01T19:09:11.959Z,30.30
2019-06-01T19:11:49.738Z,29.90
2019-06-01T19:14:27.419Z,29.40
2019-06-01T19:17:06.189Z,28.90
2019-06-01T19:19:42.647Z,28.40
2019-06-01T19:22:20.222Z,28.00
2019-06-01T19:24:57.749Z,27.50
2019-06-01T19:27:35.423Z,27.10
2019-06-01T19:30:15.056Z,26.80
2019-06-01T19:32:52.101Z,26.40
2019-06-01T19:35:29.775Z,26.00
2019-06-01T19:38:07.373Z,25.60
2019-06-01T19:40:45.165Z,25.20
2019-06-01T19:43:22.860Z,24.80
2019-06-01T19:46:00.376Z,24.50
2019-06-01T19:48:38.036Z,24.30
2019-06-01T19:51:16.743Z,24.00
2019-06-01T19:53:53.374Z,23.90
2019-06-01T19:56:31.310Z,23.70
2019-06-01T19:59:09.881Z,23.60
2019-06-01T20:01:46.969Z,23.40
2019-06-01T20:04:24.842Z,23.30
2019-06-01T20:07:02.471Z,23.20
2019-06-01T20:09:40.241Z,23.10
2019-06-01T20:12:19.931Z,22.90
2019-06-01T20:14:55.377Z,22.80
2019-06-01T20:17:32.994Z,22.70
2019-06-01T20:20:10.780Z,22.60
2019-06-01T20:22:48.310Z,22.50
2019-06-01T20:25:25.871Z,22.50
2019-06-01T20:28:03.458Z,22.40
2019-06-01T20:30:41.139Z,22.30
2019-06-01T20:33:20.294Z,22.20
2019-06-01T20:35:56.369Z,22.10
2019-06-01T20:38:35.378Z,21.90
2019-06-01T20:41:14.714Z,21.70
2019-06-01T20:43:50.670Z,21.60
2019-06-01T20:46:28.305Z,21.50
2019-06-01T20:49:05.933Z,21.40
2019-06-01T20:51:43.543Z,21.30
2019-06-01T20:54:21.196Z,21.10
2019-06-01T20:56:58.702Z,21.10
2019-06-01T20:59:36.366Z,21.00
2019-06-01T21:02:14.004Z,20.90
2019-06-01T21:04:51.593Z,20.90
2019-06-01T21:07:29.128Z,20.80
2019-06-01T21:10:07.040Z,20.70
2019-06-01T21:12:45.852Z,20.50
2019-06-01T21:15:23.378Z,20.40
2019-06-01T21:18:00.142Z,20.20
2019-06-01T21:20:37.658Z,20.10
2019-06-01T21:23:15.196Z,20.00
2019-06-01T21:25:52.739Z,19.90
2019-06-01T21:28:30.406Z,19.70
2019-06-01T21:31:08.093Z,19.60
2019-06-01T21:33:45.620Z,19.50
2019-06-01T21:36:23.590Z,19.40
2019-06-01T21:39:03.927Z,19.30
2019-06-01T21:41:41.645Z,19.20
2019-06-01T21:44:19.494Z,19.10
2019-06-01T21:46:56.919Z,19.10
2019-06-01T21:49:34.746Z,19.10
2019-06-01T21:52:12.257Z,19.00
2019-06-01T21:54:49.888Z,18.90
2019-06-01T21:57:27.602Z,18.90
2019-06-01T22:00:05.250Z,18.90
2019-06-01T22:02:42.854Z,18.80
2019-06-01T22:05:20.855Z,18.70
2019-06-01T22:07:58.063Z,18.60
2019-06-01T22:10:35.693Z,18.50
2019-06-01T22:13:18.474Z,18.40
2019-06-01T22:15:55.528Z,18.20
2019-06-01T22:18:33.168Z,18.20
2019-06-01T22:21:10.910Z,18.10
2019-06-01T22:23:48.535Z,18.10
2019-06-01T22:26:26.416Z,18.00
2019-06-01T22:29:04.083Z,18.00
2019-06-01T22:31:41.716Z,17.90
2019-06-01T22:34:20.581Z,17.80
2019-06-01T22:36:56.770Z,17.70
2019-06-01T22:39:34.343Z,17.60
2019-06-01T22:42:11.969Z,17.50
2019-06-01T22:44:49.799Z,17.40
2019-06-01T22:47:29.037Z,17.30
2019-06-01T22:50:05.309Z,17.20
2019-06-01T22:52:43.182Z,17.20
2019-06-01T22:55:21.840Z,17.10
2019-06-01T22:58:01.961Z,17.10
2019-06-01T23:00:36.391Z,17.10
2019-06-01T23:03:13.926Z,17.00
2019-06-01T23:05:51.436Z,17.00
2019-06-01T23:08:29.470Z,17.00
2019-06-01T23:11:06.652Z,17.00
2019-06-01T23:13:53.290Z,17.00
2019-06-01T23:20:34.719Z,16.90
2019-06-01T23:23:12.276Z,16.80
2019-06-01T23:25:49.857Z,16.80
2019-06-01T23:28:28.591Z,16.70
2019-06-01T23:31:05.511Z,16.50
2019-06-01T23:33:43.409Z,16.40
2019-06-01T23:36:22.391Z,16.40
2019-06-01T23:38:58.781Z,16.40
2019-06-01T23:41:36.671Z,16.40
2019-06-01T23:44:14.317Z,16.30
2019-06-01T23:46:52.279Z,16.30
2019-06-01T23:49:29.819Z,16.30
2019-06-01T23:52:10.687Z,16.30
2019-06-01T23:54:48.371Z,16.30
2019-06-01T23:57:25.915Z,16.30
